sensor_id;sensor_type;location;lat;lon;timestamp;pressure;altitude;pressure_sealevel;temperature;humidity
45467;BME280;31212;49.734;8.490;2023-05-07T00:00:20;100378.97;;;14.47;75.58
45467;BME280;31212;49.734;8.490;2023-05-07T00:02:47;100382.53;;;14.43;76.01
45467;BME280;31212;49.734;8.490;2023-05-07T00:05:15;100389.44;;;14.44;76.11
45467;BME280;31212;49.734;8.490;2023-05-07T00:07:43;100394.69;;;14.45;76.32
45467;BME280;31212;49.734;8.490;2023-05-07T00:10:10;100388.56;;;14.45;76.42
45467;BME280;31212;49.734;8.490;2023-05-07T00:12:37;100394.75;;;14.39;76.74
45467;BME280;31212;49.734;8.490;2023-05-07T00:15:05;100392.91;;;14.46;76.48
45467;BME280;31212;49.734;8.490;2023-05-07T00:17:33;100392.84;;;14.51;76.60
45467;BME280;31212;49.734;8.490;2023-05-07T00:20:00;100392.91;;;14.47;76.84
45467;BME280;31212;49.734;8.490;2023-05-07T00:22:27;100386.81;;;14.47;76.86
45467;BME280;31212;49.734;8.490;2023-05-07T00:24:55;100384.09;;;14.55;76.87
45467;BME280;31212;49.734;8.490;2023-05-07T00:27:21;100379.78;;;14.52;76.65
45467;BME280;31212;49.734;8.490;2023-05-07T00:29:48;100377.19;;;14.52;76.82
45467;BME280;31212;49.734;8.490;2023-05-07T00:32:14;100377.19;;;14.49;76.88
45467;BME280;31212;49.734;8.490;2023-05-07T00:34:42;100385.94;;;14.46;77.00
45467;BME280;31212;49.734;8.490;2023-05-07T00:37:09;100378.97;;;14.47;77.11
45467;BME280;31212;49.734;8.490;2023-05-07T00:39:38;100388.56;;;14.45;77.52
45467;BME280;31212;49.734;8.490;2023-05-07T00:42:05;100384.22;;;14.47;77.52
45467;BME280;31212;49.734;8.490;2023-05-07T00:44:31;100383.31;;;14.46;77.55
45467;BME280;31212;49.734;8.490;2023-05-07T00:46:58;100388.56;;;14.45;77.87
45467;BME280;31212;49.734;8.490;2023-05-07T00:49:32;100391.22;;;14.43;78.02
45467;BME280;31212;49.734;8.490;2023-05-07T00:52:01;100389.44;;;14.47;77.61
45467;BME280;31212;49.734;8.490;2023-05-07T00:54:27;100382.44;;;14.47;77.74
45467;BME280;31212;49.734;8.490;2023-05-07T00:56:55;100379.97;;;14.37;78.02
45467;BME280;31212;49.734;8.490;2023-05-07T00:59:22;100385.19;;;14.37;78.22
45467;BME280;31212;49.734;8.490;2023-05-07T01:01:49;100383.50;;;14.33;78.57
45467;BME280;31212;49.734;8.490;2023-05-07T01:04:17;100387.91;;;14.29;78.97
45467;BME280;31212;49.734;8.490;2023-05-07T01:06:44;100398.41;;;14.26;79.25
45467;BME280;31212;49.734;8.490;2023-05-07T01:09:11;100395.88;;;14.18;79.32
45467;BME280;31212;49.734;8.490;2023-05-07T01:11:39;100403.81;;;14.07;79.62
45467;BME280;31212;49.734;8.490;2023-05-07T01:14:08;100402.19;;;13.99;79.98
45467;BME280;31212;49.734;8.490;2023-05-07T01:16:36;100404.84;;;13.95;80.25
45467;BME280;31212;49.734;8.490;2023-05-07T01:19:03;100415.34;;;13.89;80.71
45467;BME280;31212;49.734;8.490;2023-05-07T01:21:33;100417.09;;;13.87;80.90
45467;BME280;31212;49.734;8.490;2023-05-07T01:24:04;100412.84;;;13.78;81.02
45467;BME280;31212;49.734;8.490;2023-05-07T01:26:32;100415.50;;;13.72;81.46
45467;BME280;31212;49.734;8.490;2023-05-07T01:28:58;100416.41;;;13.71;81.83
45467;BME280;31212;49.734;8.490;2023-05-07T01:31:25;100410.38;;;13.65;81.90
45467;BME280;31212;49.734;8.490;2023-05-07T01:33:52;100417.31;;;13.67;82.32
45467;BME280;31212;49.734;8.490;2023-05-07T01:36:20;100413.91;;;13.56;82.78
45467;BME280;31212;49.734;8.490;2023-05-07T01:38:51;100417.47;;;13.49;82.99
45467;BME280;31212;49.734;8.490;2023-05-07T01:41:19;100423.59;;;13.44;83.31
45467;BME280;31212;49.734;8.490;2023-05-07T01:43:46;100413.13;;;13.49;83.54
45467;BME280;31212;49.734;8.490;2023-05-07T01:46:13;100414.00;;;13.46;83.68
45467;BME280;31212;49.734;8.490;2023-05-07T01:48:41;100414.88;;;13.45;83.66
45467;BME280;31212;49.734;8.490;2023-05-07T01:51:11;100412.31;;;13.41;84.09
45467;BME280;31212;49.734;8.490;2023-05-07T01:53:38;100411.47;;;13.39;84.24
45467;BME280;31212;49.734;8.490;2023-05-07T01:56:06;100413.19;;;13.38;84.20
45467;BME280;31212;49.734;8.490;2023-05-07T01:58:36;100420.16;;;13.33;84.52
45467;BME280;31212;49.734;8.490;2023-05-07T02:01:03;100418.50;;;13.26;85.03
45467;BME280;31212;49.734;8.490;2023-05-07T02:03:30;100425.47;;;13.25;85.23
45467;BME280;31212;49.734;8.490;2023-05-07T02:06:05;100425.44;;;13.24;85.39
45467;BME280;31212;49.734;8.490;2023-05-07T02:08:37;100422.91;;;13.18;85.74
45467;BME280;31212;49.734;8.490;2023-05-07T02:11:03;100422.00;;;13.17;85.86
45467;BME280;31212;49.734;8.490;2023-05-07T02:13:32;100424.63;;;13.20;86.12
45467;BME280;31212;49.734;8.490;2023-05-07T02:16:01;100427.22;;;13.17;85.92
45467;BME280;31212;49.734;8.490;2023-05-07T02:18:28;100430.75;;;13.16;86.11
45467;BME280;31212;49.734;8.490;2023-05-07T02:20:54;100423.75;;;13.20;86.23
45467;BME280;31212;49.734;8.490;2023-05-07T02:23:21;100426.38;;;13.15;86.58
45467;BME280;31212;49.734;8.490;2023-05-07T02:25:48;100428.13;;;13.16;86.65
45467;BME280;31212;49.734;8.490;2023-05-07T02:28:14;100429.91;;;13.11;86.90
45467;BME280;31212;49.734;8.490;2023-05-07T02:30:49;100437.75;;;13.08;86.92
45467;BME280;31212;49.734;8.490;2023-05-07T02:33:17;100448.19;;;13.08;87.27
45467;BME280;31212;49.734;8.490;2023-05-07T02:35:44;100445.56;;;13.05;87.51
45467;BME280;31212;49.734;8.490;2023-05-07T02:38:13;100449.03;;;13.07;87.67
45467;BME280;31212;49.734;8.490;2023-05-07T02:40:40;100452.50;;;13.06;88.00
45467;BME280;31212;49.734;8.490;2023-05-07T02:43:07;100460.34;;;13.04;88.37
45467;BME280;31212;49.734;8.490;2023-05-07T02:45:34;100462.91;;;13.09;88.46
45467;BME280;31212;49.734;8.490;2023-05-07T02:48:03;100456.88;;;13.05;88.55
45467;BME280;31212;49.734;8.490;2023-05-07T02:50:32;100467.38;;;12.93;89.27
45467;BME280;31212;49.734;8.490;2023-05-07T02:52:58;100466.53;;;12.83;89.75
45467;BME280;31212;49.734;8.490;2023-05-07T02:55:25;100468.31;;;12.81;90.44
45467;BME280;31212;49.734;8.490;2023-05-07T02:57:51;100471.81;;;12.77;90.45
45467;BME280;31212;49.734;8.490;2023-05-07T03:00:19;100464.84;;;12.76;91.32
45467;BME280;31212;49.734;8.490;2023-05-07T03:02:53;100456.97;;;12.87;91.14
45467;BME280;31212;49.734;8.490;2023-05-07T03:05:21;100463.09;;;12.81;91.38
45467;BME280;31212;49.734;8.490;2023-05-07T03:07:49;100460.47;;;12.78;91.46
45467;BME280;31212;49.734;8.490;2023-05-07T03:10:15;100459.66;;;12.73;91.74
45467;BME280;31212;49.734;8.490;2023-05-07T03:12:42;100472.69;;;12.67;92.02
45467;BME280;31212;49.734;8.490;2023-05-07T03:15:13;100464.91;;;12.65;92.40
45467;BME280;31212;49.734;8.490;2023-05-07T03:17:40;100465.75;;;12.70;92.68
45467;BME280;31212;49.734;8.490;2023-05-07T03:20:07;100457.06;;;12.67;92.80
45467;BME280;31212;49.734;8.490;2023-05-07T03:22:35;100464.88;;;12.68;93.12
45467;BME280;31212;49.734;8.490;2023-05-07T03:25:03;100452.72;;;12.70;92.85
45467;BME280;31212;49.734;8.490;2023-05-07T03:27:30;100453.56;;;12.75;93.02
45467;BME280;31212;49.734;8.490;2023-05-07T03:29:57;100450.09;;;12.75;93.32
45467;BME280;31212;49.734;8.490;2023-05-07T03:32:24;100438.81;;;12.70;93.43
45467;BME280;31212;49.734;8.490;2023-05-07T03:34:51;100444.00;;;12.71;93.36
45467;BME280;31212;49.734;8.490;2023-05-07T03:37:17;100433.63;;;12.73;93.31
45467;BME280;31212;49.734;8.490;2023-05-07T03:39:44;100438.81;;;12.76;93.38
45467;BME280;31212;49.734;8.490;2023-05-07T03:42:12;100426.66;;;12.73;93.71
45467;BME280;31212;49.734;8.490;2023-05-07T03:44:38;100424.91;;;12.72;93.71
45467;BME280;31212;49.734;8.490;2023-05-07T03:47:05;100425.78;;;12.70;93.61
45467;BME280;31212;49.734;8.490;2023-05-07T03:49:31;100429.31;;;12.62;93.83
45467;BME280;31212;49.734;8.490;2023-05-07T03:51:58;100431.91;;;12.62;93.78
45467;BME280;31212;49.734;8.490;2023-05-07T03:54:25;100429.31;;;12.62;93.69
45467;BME280;31212;49.734;8.490;2023-05-07T03:56:52;100431.94;;;12.59;94.04
45467;BME280;31212;49.734;8.490;2023-05-07T03:59:19;100432.81;;;12.57;94.32
45467;BME280;31212;49.734;8.490;2023-05-07T04:01:47;100444.06;;;12.60;94.41
45467;BME280;31212;49.734;8.490;2023-05-07T04:04:16;100448.41;;;12.61;94.09
45467;BME280;31212;49.734;8.490;2023-05-07T04:06:43;100450.09;;;12.72;94.44
45467;BME280;31212;49.734;8.490;2023-05-07T04:09:10;100451.81;;;12.82;94.26
45467;BME280;31212;49.734;8.490;2023-05-07T04:11:37;100449.13;;;12.91;93.60
45467;BME280;31212;49.734;8.490;2023-05-07T04:14:07;100447.38;;;12.95;93.05
45467;BME280;31212;49.734;8.490;2023-05-07T04:16:35;100445.59;;;13.02;93.08
45467;BME280;31212;49.734;8.490;2023-05-07T04:19:02;100445.47;;;13.17;92.74
45467;BME280;31212;49.734;8.490;2023-05-07T04:21:29;100441.94;;;13.26;92.39
45467;BME280;31212;49.734;8.490;2023-05-07T04:23:58;100438.44;;;13.30;91.48
45467;BME280;31212;49.734;8.490;2023-05-07T04:26:24;100432.31;;;13.34;91.14
45467;BME280;31212;49.734;8.490;2023-05-07T04:28:51;100439.25;;;13.43;90.60
45467;BME280;31212;49.734;8.490;2023-05-07T04:31:17;100430.50;;;13.45;90.40
45467;BME280;31212;49.734;8.490;2023-05-07T04:33:49;100436.59;;;13.49;90.59
45467;BME280;31212;49.734;8.490;2023-05-07T04:36:16;100425.25;;;13.53;90.33
45467;BME280;31212;49.734;8.490;2023-05-07T04:38:49;100434.75;;;13.59;90.20
45467;BME280;31212;49.734;8.490;2023-05-07T04:41:17;100428.59;;;13.68;89.62
45467;BME280;31212;49.734;8.490;2023-05-07T04:43:44;100426.81;;;13.74;89.76
45467;BME280;31212;49.734;8.490;2023-05-07T04:46:12;100431.03;;;13.85;89.47
45467;BME280;31212;49.734;8.490;2023-05-07T04:48:40;100430.94;;;13.94;89.24
45467;BME280;31212;49.734;8.490;2023-05-07T04:51:08;100429.03;;;14.10;88.75
45467;BME280;31212;49.734;8.490;2023-05-07T04:53:34;100418.56;;;14.11;88.07
45467;BME280;31212;49.734;8.490;2023-05-07T04:56:01;100420.19;;;14.22;87.64
45467;BME280;31212;49.734;8.490;2023-05-07T04:58:37;100423.72;;;14.19;87.04
45467;BME280;31212;49.734;8.490;2023-05-07T05:01:04;100414.03;;;14.27;86.63
45467;BME280;31212;49.734;8.490;2023-05-07T05:03:31;100413.09;;;14.33;86.77
45467;BME280;31212;49.734;8.490;2023-05-07T05:05:58;100395.66;;;14.35;86.31
45467;BME280;31212;49.734;8.490;2023-05-07T05:08:29;100398.16;;;14.46;86.19
45467;BME280;31212;49.734;8.490;2023-05-07T05:10:57;100404.06;;;14.57;85.98
45467;BME280;31212;49.734;8.490;2023-05-07T05:13:23;100390.78;;;14.76;85.42
45467;BME280;31212;49.734;8.490;2023-05-07T05:15:50;100378.34;;;14.93;84.88
45467;BME280;31212;49.734;8.490;2023-05-07T05:18:17;100365.19;;;14.98;83.83
45467;BME280;31212;49.734;8.490;2023-05-07T05:20:44;100361.59;;;15.05;83.64
45467;BME280;31212;49.734;8.490;2023-05-07T05:23:11;100363.94;;;15.24;82.98
45467;BME280;31212;49.734;8.490;2023-05-07T05:25:39;100362.94;;;15.29;83.00
45467;BME280;31212;49.734;8.490;2023-05-07T05:28:09;100358.53;;;15.31;82.74
45467;BME280;31212;49.734;8.490;2023-05-07T05:30:36;100355.88;;;15.36;82.08
45467;BME280;31212;49.734;8.490;2023-05-07T05:33:02;100349.75;;;15.37;81.69
45467;BME280;31212;49.734;8.490;2023-05-07T05:35:29;100354.03;;;15.40;82.13
45467;BME280;31212;49.734;8.490;2023-05-07T05:37:57;100330.41;;;15.46;81.23
45467;BME280;31212;49.734;8.490;2023-05-07T05:40:24;100318.00;;;15.56;80.58
45467;BME280;31212;49.734;8.490;2023-05-07T05:42:52;100314.38;;;15.61;80.35
45467;BME280;31212;49.734;8.490;2023-05-07T05:45:18;100325.63;;;15.67;80.27
45467;BME280;31212;49.734;8.490;2023-05-07T05:47:45;100310.72;;;15.72;80.06
45467;BME280;31212;49.734;8.490;2023-05-07T05:50:12;100323.72;;;15.75;80.02
45467;BME280;31212;49.734;8.490;2023-05-07T05:52:39;100310.59;;;15.78;79.53
45467;BME280;31212;49.734;8.490;2023-05-07T05:55:07;100303.50;;;15.86;79.39
45467;BME280;31212;49.734;8.490;2023-05-07T05:57:35;100295.66;;;15.85;78.59
45467;BME280;31212;49.734;8.490;2023-05-07T06:00:05;100296.59;;;15.79;78.85
45467;BME280;31212;49.734;8.490;2023-05-07T06:02:43;100310.38;;;15.90;79.06
45467;BME280;31212;49.734;8.490;2023-05-07T06:05:12;100316.41;;;15.95;78.86
45467;BME280;31212;49.734;8.490;2023-05-07T06:07:39;100310.84;;;16.09;78.83
45467;BME280;31212;49.734;8.490;2023-05-07T06:10:07;100281.78;;;16.22;78.04
45467;BME280;31212;49.734;8.490;2023-05-07T06:12:34;100266.75;;;16.30;77.19
45467;BME280;31212;49.734;8.490;2023-05-07T06:15:01;100249.16;;;16.35;76.68
45467;BME280;31212;49.734;8.490;2023-05-07T06:17:29;100231.53;;;16.42;75.79
45467;BME280;31212;49.734;8.490;2023-05-07T06:19:56;100198.28;;;16.45;75.20
45467;BME280;31212;49.734;8.490;2023-05-07T06:22:22;100152.13;;;16.40;73.47
45467;BME280;31212;49.734;8.490;2023-05-07T06:24:49;100131.66;;;16.54;72.93
45467;BME280;31212;49.734;8.490;2023-05-07T06:27:16;100122.94;;;16.54;72.57
45467;BME280;31212;49.734;8.490;2023-05-07T06:29:44;100126.13;;;16.65;72.09
45467;BME280;31212;49.734;8.490;2023-05-07T06:32:14;100135.59;;;16.72;72.21
45467;BME280;31212;49.734;8.490;2023-05-07T06:34:45;100125.78;;;16.79;72.10
45467;BME280;31212;49.734;8.490;2023-05-07T06:37:12;100096.06;;;16.78;71.40
45467;BME280;31212;49.734;8.490;2023-05-07T06:40:01;100107.50;;;17.09;71.13
45467;BME280;31212;49.734;8.490;2023-05-07T06:42:29;100101.31;;;17.11;70.71
45467;BME280;31212;49.734;8.490;2023-05-07T06:45:00;100099.00;;;17.30;70.21
45467;BME280;31212;49.734;8.490;2023-05-07T06:47:30;100062.59;;;17.20;69.59
45467;BME280;31212;49.734;8.490;2023-05-07T06:49:58;100050.63;;;17.39;68.70
45467;BME280;31212;49.734;8.490;2023-05-07T06:52:29;100070.56;;;17.45;69.13
45467;BME280;31212;49.734;8.490;2023-05-07T06:54:55;100038.78;;;17.54;68.49
45467;BME280;31212;49.734;8.490;2023-05-07T06:57:24;100061.00;;;17.71;68.66
45467;BME280;31212;49.734;8.490;2023-05-07T06:59:51;100028.41;;;17.51;68.52
45467;BME280;31212;49.734;8.490;2023-05-07T07:02:18;100023.72;;;17.88;67.81
45467;BME280;31212;49.734;8.490;2023-05-07T07:04:46;99992.38;;;18.10;66.87
45467;BME280;31212;49.734;8.490;2023-05-07T07:07:14;99986.88;;;18.16;66.54
45467;BME280;31212;49.734;8.490;2023-05-07T07:09:43;99971.38;;;18.33;65.75
45467;BME280;31212;49.734;8.490;2023-05-07T07:12:12;99968.53;;;18.40;65.49
45467;BME280;31212;49.734;8.490;2023-05-07T07:14:40;99982.13;;;18.51;65.62
45467;BME280;31212;49.734;8.490;2023-05-07T07:17:07;99985.59;;;18.52;65.55
45467;BME280;31212;49.734;8.490;2023-05-07T07:19:34;99962.88;;;18.74;64.58
45467;BME280;31212;49.734;8.490;2023-05-07T07:22:02;99951.22;;;18.81;64.30
45467;BME280;31212;49.734;8.490;2023-05-07T07:24:30;99924.34;;;18.97;63.58
45467;BME280;31212;49.734;8.490;2023-05-07T07:27:01;99922.88;;;18.90;63.31
45467;BME280;31212;49.734;8.490;2023-05-07T07:29:28;99903.84;;;19.05;62.73
45467;BME280;31212;49.734;8.490;2023-05-07T07:31:56;99936.81;;;19.36;62.90
45467;BME280;31212;49.734;8.490;2023-05-07T07:34:22;99918.09;;;19.64;62.32
45467;BME280;31212;49.734;8.490;2023-05-07T07:36:49;99865.22;;;19.69;60.98
45467;BME280;31212;49.734;8.490;2023-05-07T07:39:17;99844.44;;;19.83;60.40
45467;BME280;31212;49.734;8.490;2023-05-07T07:41:47;99853.25;;;19.82;60.27
45467;BME280;31212;49.734;8.490;2023-05-07T07:44:15;99819.34;;;19.75;59.83
45467;BME280;31212;49.734;8.490;2023-05-07T07:46:47;99849.88;;;19.58;60.24
45467;BME280;31212;49.734;8.490;2023-05-07T07:49:14;99858.00;;;19.33;60.41
45467;BME280;31212;49.734;8.490;2023-05-07T07:51:42;99892.13;;;19.35;60.83
45467;BME280;31212;49.734;8.490;2023-05-07T07:54:10;99868.00;;;19.45;60.31
45467;BME280;31212;49.734;8.490;2023-05-07T07:56:37;99920.47;;;19.28;61.26
45467;BME280;31212;49.734;8.490;2023-05-07T07:59:06;99927.13;;;19.37;61.34
45467;BME280;31212;49.734;8.490;2023-05-07T08:01:34;99899.13;;;19.56;60.67
45467;BME280;31212;49.734;8.490;2023-05-07T08:04:01;99863.50;;;19.47;60.05
45467;BME280;31212;49.734;8.490;2023-05-07T08:06:29;99864.75;;;19.39;59.94
45467;BME280;31212;49.734;8.490;2023-05-07T08:08:56;99881.75;;;19.73;59.84
45467;BME280;31212;49.734;8.490;2023-05-07T08:11:23;99832.69;;;19.70;59.07
45467;BME280;31212;49.734;8.490;2023-05-07T08:13:52;99869.19;;;19.59;59.81
45467;BME280;31212;49.734;8.490;2023-05-07T08:16:20;99897.41;;;19.76;60.19
45467;BME280;31212;49.734;8.490;2023-05-07T08:18:47;99823.25;;;20.06;58.48
45467;BME280;31212;49.734;8.490;2023-05-07T08:21:14;99855.69;;;19.87;59.34
45467;BME280;31212;49.734;8.490;2023-05-07T08:23:41;99847.81;;;20.25;58.93
45467;BME280;31212;49.734;8.490;2023-05-07T08:26:09;99815.50;;;20.41;58.30
45467;BME280;31212;49.734;8.490;2023-05-07T08:28:36;99846.81;;;20.66;58.51
45467;BME280;31212;49.734;8.490;2023-05-07T08:31:02;99863.06;;;20.57;58.59
45467;BME280;31212;49.734;8.490;2023-05-07T08:33:35;99831.22;;;20.61;57.72
45467;BME280;31212;49.734;8.490;2023-05-07T08:36:02;99824.22;;;20.79;57.51
45467;BME280;31212;49.734;8.490;2023-05-07T08:38:29;99804.47;;;20.50;57.28
45467;BME280;31212;49.734;8.490;2023-05-07T08:40:56;99813.06;;;20.92;56.92
45467;BME280;31212;49.734;8.490;2023-05-07T08:43:26;99809.13;;;20.64;57.21
45467;BME280;31212;49.734;8.490;2023-05-07T08:45:54;99801.41;;;20.78;56.83
45467;BME280;31212;49.734;8.490;2023-05-07T08:48:25;99801.94;;;20.48;56.93
45467;BME280;31212;49.734;8.490;2023-05-07T08:51:03;99817.59;;;21.25;56.57
45467;BME280;31212;49.734;8.490;2023-05-07T08:53:30;99753.09;;;21.64;55.29
45467;BME280;31212;49.734;8.490;2023-05-07T08:55:58;99702.56;;;21.70;54.46
45467;BME280;31212;49.734;8.490;2023-05-07T08:58:25;99699.94;;;22.02;53.89
45467;BME280;31212;49.734;8.490;2023-05-07T09:00:52;99725.25;;;22.22;54.03
45467;BME280;31212;49.734;8.490;2023-05-07T09:03:21;99683.22;;;22.17;53.38
45467;BME280;31212;49.734;8.490;2023-05-07T09:05:50;99674.25;;;22.36;52.89
45467;BME280;31212;49.734;8.490;2023-05-07T09:08:24;99674.41;;;22.94;52.45
45467;BME280;31212;49.734;8.490;2023-05-07T09:10:51;99682.31;;;22.79;52.76
45467;BME280;31212;49.734;8.490;2023-05-07T09:13:18;99683.56;;;21.63;53.83
45467;BME280;31212;49.734;8.490;2023-05-07T09:15:45;99707.63;;;22.07;53.42
45467;BME280;31212;49.734;8.490;2023-05-07T09:18:12;99590.34;;;22.54;51.21
45467;BME280;31212;49.734;8.490;2023-05-07T09:20:40;99565.13;;;23.35;49.85
45467;BME280;31212;49.734;8.490;2023-05-07T09:23:08;99566.56;;;23.68;49.32
45467;BME280;31212;49.734;8.490;2023-05-07T09:25:37;99571.69;;;23.98;49.04
45467;BME280;31212;49.734;8.490;2023-05-07T09:28:11;99552.28;;;24.11;48.72
45467;BME280;31212;49.734;8.490;2023-05-07T09:30:38;99609.69;;;23.28;50.30
45467;BME280;31212;49.734;8.490;2023-05-07T09:33:07;99601.81;;;23.83;49.51
45467;BME280;31212;49.734;8.490;2023-05-07T09:35:39;99557.88;;;23.93;48.69
45467;BME280;31212;49.734;8.490;2023-05-07T09:38:10;99528.53;;;23.82;48.36
45467;BME280;31212;49.734;8.490;2023-05-07T09:40:40;99536.25;;;23.99;48.13
45467;BME280;31212;49.734;8.490;2023-05-07T09:43:11;99620.13;;;23.59;49.59
45467;BME280;31212;49.734;8.490;2023-05-07T09:45:46;99657.78;;;23.64;50.18
45467;BME280;31212;49.734;8.490;2023-05-07T09:48:18;99604.69;;;23.65;49.15
45467;BME280;31212;49.734;8.490;2023-05-07T09:50:49;99584.84;;;23.85;48.87
45467;BME280;31212;49.734;8.490;2023-05-07T09:53:21;99572.41;;;23.31;49.23
45467;BME280;31212;49.734;8.490;2023-05-07T09:55:51;99675.88;;;23.43;50.49
45467;BME280;31212;49.734;8.490;2023-05-07T09:58:20;99656.31;;;24.69;49.06
45467;BME280;31212;49.734;8.490;2023-05-07T10:00:49;99483.91;;;25.05;46.39
45467;BME280;31212;49.734;8.490;2023-05-07T10:03:17;99476.75;;;25.91;45.14
45467;BME280;31212;49.734;8.490;2023-05-07T10:05:53;99545.44;;;26.21;45.81
45467;BME280;31212;49.734;8.490;2023-05-07T10:08:21;99484.84;;;27.59;43.27
45467;BME280;31212;49.734;8.490;2023-05-07T10:10:52;99379.50;;;27.86;41.53
45467;BME280;31212;49.734;8.490;2023-05-07T10:13:22;99420.84;;;26.94;42.73
45467;BME280;31212;49.734;8.490;2023-05-07T10:15:53;99449.28;;;26.48;43.43
45467;BME280;31212;49.734;8.490;2023-05-07T10:18:23;99411.66;;;26.53;42.49
45467;BME280;31212;49.734;8.490;2023-05-07T10:21:02;99531.38;;;25.83;45.08
45467;BME280;31212;49.734;8.490;2023-05-07T10:23:29;99493.13;;;26.09;44.10
45467;BME280;31212;49.734;8.490;2023-05-07T10:26:02;99531.94;;;25.51;45.58
45467;BME280;31212;49.734;8.490;2023-05-07T10:28:34;99465.59;;;25.85;44.19
45467;BME280;31212;49.734;8.490;2023-05-07T10:31:15;99535.81;;;25.83;45.05
45467;BME280;31212;49.734;8.490;2023-05-07T10:33:46;99488.44;;;26.12;43.98
45467;BME280;31212;49.734;8.490;2023-05-07T10:36:19;99470.19;;;26.19;43.81
45467;BME280;31212;49.734;8.490;2023-05-07T10:38:49;99514.56;;;26.18;44.26
45467;BME280;31212;49.734;8.490;2023-05-07T10:41:17;99464.03;;;26.41;43.36
45467;BME280;31212;49.734;8.490;2023-05-07T10:43:45;99555.00;;;25.75;44.96
45467;BME280;31212;49.734;8.490;2023-05-07T10:46:20;99534.59;;;26.58;43.98
45467;BME280;31212;49.734;8.490;2023-05-07T10:49:07;99518.63;;;26.58;43.66
45467;BME280;31212;49.734;8.490;2023-05-07T10:51:45;99559.69;;;26.90;43.84
45467;BME280;31212;49.734;8.490;2023-05-07T10:54:26;99405.97;;;26.24;42.95
45467;BME280;31212;49.734;8.490;2023-05-07T10:57:34;99543.38;;;26.00;45.08
45467;BME280;31212;49.734;8.490;2023-05-07T11:03:25;99442.72;;;28.78;40.92
45467;BME280;31212;49.734;8.490;2023-05-07T11:06:10;99367.31;;;28.55;39.52
45467;BME280;31212;49.734;8.490;2023-05-07T11:08:54;99326.78;;;29.97;37.96
45467;BME280;31212;49.734;8.490;2023-05-07T11:11:45;99151.94;;;27.85;38.02
45467;BME280;31212;49.734;8.490;2023-05-07T11:14:43;99329.09;;;28.14;39.80
45467;BME280;31212;49.734;8.490;2023-05-07T11:17:22;99258.38;;;29.84;37.17
45467;BME280;31212;49.734;8.490;2023-05-07T11:19:56;99330.50;;;27.56;40.51
45467;BME280;31212;49.734;8.490;2023-05-07T11:22:36;99286.75;;;27.99;39.23
45467;BME280;31212;49.734;8.490;2023-05-07T11:25:17;99370.28;;;28.00;40.38
45467;BME280;31212;49.734;8.490;2023-05-07T11:27:45;99389.53;;;28.25;40.12
45467;BME280;31212;49.734;8.490;2023-05-07T11:30:18;99344.22;;;27.82;40.11
45467;BME280;31212;49.734;8.490;2023-05-07T11:32:48;99412.31;;;27.12;41.84
45467;BME280;31212;49.734;8.490;2023-05-07T11:35:17;99326.66;;;26.95;41.15
45467;BME280;31212;49.734;8.490;2023-05-07T11:37:46;99405.84;;;27.58;41.32
45467;BME280;31212;49.734;8.490;2023-05-07T11:40:14;99428.97;;;27.79;41.39
45467;BME280;31212;49.734;8.490;2023-05-07T11:42:40;99378.41;;;27.89;40.60
45467;BME280;31212;49.734;8.490;2023-05-07T11:45:09;99345.25;;;28.12;40.07
45467;BME280;31212;49.734;8.490;2023-05-07T11:47:36;99356.16;;;27.78;40.20
45467;BME280;31212;49.734;8.490;2023-05-07T11:50:07;99390.81;;;26.69;41.96
45467;BME280;31212;49.734;8.490;2023-05-07T11:52:35;99429.94;;;26.58;42.27
45467;BME280;31212;49.734;8.490;2023-05-07T11:55:04;99472.75;;;26.55;43.31
45467;BME280;31212;49.734;8.490;2023-05-07T11:57:33;99513.78;;;27.20;43.14
45467;BME280;31212;49.734;8.490;2023-05-07T12:00:00;99410.13;;;27.49;41.30
45467;BME280;31212;49.734;8.490;2023-05-07T12:02:39;99450.09;;;27.06;42.21
45467;BME280;31212;49.734;8.490;2023-05-07T12:05:07;99411.19;;;26.59;42.33
45467;BME280;31212;49.734;8.490;2023-05-07T12:07:34;99508.63;;;26.15;44.25
45467;BME280;31212;49.734;8.490;2023-05-07T12:10:04;99502.41;;;26.61;43.77
45467;BME280;31212;49.734;8.490;2023-05-07T12:12:31;99427.63;;;26.30;42.56
45467;BME280;31212;49.734;8.490;2023-05-07T12:15:04;99488.94;;;27.19;42.76
45467;BME280;31212;49.734;8.490;2023-05-07T12:17:31;99445.41;;;26.64;42.75
45467;BME280;31212;49.734;8.490;2023-05-07T12:19:59;99409.88;;;27.52;41.20
45467;BME280;31212;49.734;8.490;2023-05-07T12:22:26;99405.75;;;26.49;42.36
45467;BME280;31212;49.734;8.490;2023-05-07T12:24:57;99399.63;;;27.36;41.36
45467;BME280;31212;49.734;8.490;2023-05-07T12:27:25;99473.84;;;28.58;41.28
45467;BME280;31212;49.734;8.490;2023-05-07T12:29:52;99326.94;;;27.02;40.82
45467;BME280;31212;49.734;8.490;2023-05-07T12:32:19;99306.53;;;27.45;40.07
45467;BME280;31212;49.734;8.490;2023-05-07T12:34:49;99310.81;;;27.36;40.24
45467;BME280;31212;49.734;8.490;2023-05-07T12:37:22;99329.22;;;26.63;41.00
45467;BME280;31212;49.734;8.490;2023-05-07T12:39:50;99336.84;;;26.90;40.64
45467;BME280;31212;49.734;8.490;2023-05-07T12:42:32;99379.59;;;26.66;41.52
45467;BME280;31212;49.734;8.490;2023-05-07T12:44:59;99388.34;;;27.12;41.21
45467;BME280;31212;49.734;8.490;2023-05-07T12:47:27;99311.81;;;26.59;41.02
45467;BME280;31212;49.734;8.490;2023-05-07T12:49:54;99438.03;;;26.79;42.51
45467;BME280;31212;49.734;8.490;2023-05-07T12:52:22;99367.97;;;26.78;41.28
45467;BME280;31212;49.734;8.490;2023-05-07T12:54:48;99323.94;;;25.25;42.60
45467;BME280;31212;49.734;8.490;2023-05-07T12:57:18;99409.00;;;25.72;43.45
45467;BME280;31212;49.734;8.490;2023-05-07T12:59:45;99440.50;;;24.93;44.28
45467;BME280;31212;49.734;8.490;2023-05-07T13:02:11;99465.09;;;24.71;45.22
45467;BME280;31212;49.734;8.490;2023-05-07T13:04:40;99494.59;;;24.79;45.24
45467;BME280;31212;49.734;8.490;2023-05-07T13:07:06;99451.53;;;24.62;44.77